Time;durP1;ratioP1;P1;durP2;ratioP2;P2;SDS_P1;SDS_P2;PMS_P1;PMS_P2;Temp;Humidity;BMP_temperature;BMP_pressure;BME280_temperature;BME280_humidity;BME280_pressure;Samples;Min_cycle;Max_cycle;Signal;HPM_P1;HPM_P2
2023/03/01 00:00:38;;;;;;;10.32;7.90;;;;;;;4.60;81.15;95283.91;5033597;28;20049;-73
2023/03/01 00:03:04;;;;;;;10.45;8.18;;;;;;;4.72;81.47;95300.44;5049866;28;20044;-73
2023/03/01 00:05:29;;;;;;;10.70;7.88;;;;;;;4.91;80.76;95298.56;5051266;28;20457;-73
2023/03/01 00:07:55;;;;;;;11.60;8.55;;;;;;;4.80;80.15;95294.91;5049934;28;20399;-74
2023/03/01 00:10:20;;;;;;;11.40;8.27;;;;;;;4.85;79.93;95283.44;5051254;28;20487;-73
2023/03/01 00:12:46;;;;;;;10.65;7.63;;;;;;;4.98;79.72;95295.66;5049757;28;20033;-73
2023/03/01 00:15:12;;;;;;;11.48;8.00;;;;;;;5.00;79.64;95296.41;5049983;28;20091;-73
2023/03/01 00:17:38;;;;;;;11.10;7.15;;;;;;;4.84;79.50;95273.22;5017356;28;20491;-74
2023/03/01 00:20:08;;;;;;;10.23;7.60;;;;;;;4.93;79.85;95275.28;5051447;28;20037;-73
2023/03/01 00:22:33;;;;;;;9.48;7.65;;;;;;;5.04;79.46;95287.59;5050863;28;20033;-74
2023/03/01 00:24:59;;;;;;;9.57;7.72;;;;;;;4.98;79.74;95281.03;5049615;28;20033;-73
2023/03/01 00:27:24;;;;;;;10.75;8.38;;;;;;;4.92;79.83;95286.53;5049673;28;20025;-73
2023/03/01 00:29:49;;;;;;;9.95;7.88;;;;;;;4.53;80.06;95225.94;5050939;28;20443;-73
2023/03/01 00:32:15;;;;;;;9.05;7.07;;;;;;;4.81;80.15;95270.81;5049448;28;20380;-74
2023/03/01 00:34:40;;;;;;;8.95;6.65;;;;;;;4.75;80.47;95269.38;5033327;28;20415;-74
2023/03/01 00:37:06;;;;;;;7.88;6.45;;;;;;;4.78;79.98;95258.09;5033184;28;20028;-74
2023/03/01 00:39:32;;;;;;;7.88;6.07;;;;;;;4.78;80.11;95268.41;5050038;28;20032;-74
2023/03/01 00:41:58;;;;;;;7.43;5.43;;;;;;;4.67;80.06;95238.91;5050669;28;20033;-74
2023/03/01 00:44:23;;;;;;;6.45;5.00;;;;;;;4.95;79.55;95259.78;5033084;28;20037;-73
2023/03/01 00:46:48;;;;;;;6.97;5.03;;;;;;;5.01;79.46;95264.59;5049631;28;20052;-73
2023/03/01 00:49:14;;;;;;;5.10;4.07;;;;;;;4.95;79.25;95259.78;5051130;28;20029;-74
2023/03/01 00:51:41;;;;;;;5.70;4.57;;;;;;;4.95;78.90;95234.84;5032871;28;20384;-73
2023/03/01 00:54:08;;;;;;;5.47;4.30;;;;;;;4.75;79.49;95258.28;5033262;28;20025;-74
2023/03/01 00:56:33;;;;;;;5.35;4.22;;;;;;;5.01;78.91;95262.84;5032814;28;20041;-74
2023/03/01 00:58:59;;;;;;;5.57;4.25;;;;;;;4.89;78.87;95222.31;5050718;28;20051;-73
2023/03/01 01:01:27;;;;;;;6.20;4.57;;;;;;;5.09;78.57;95252.97;5032864;28;20040;-74
2023/03/01 01:04:00;;;;;;;6.53;4.88;;;;;;;4.91;78.61;95236.78;5049726;28;20025;-73
2023/03/01 01:06:31;;;;;;;5.25;4.22;;;;;;;4.74;78.90;95202.56;5017261;28;20122;-73
2023/03/01 01:08:56;;;;;;;5.77;4.53;;;;;;;5.16;78.56;95253.47;5033175;28;20035;-74
2023/03/01 01:11:23;;;;;;;4.88;3.72;;;;;;;5.18;78.70;95256.78;5032789;28;20406;-74
2023/03/01 01:13:49;;;;;;;5.35;4.20;;;;;;;5.12;78.51;95254.53;5049496;28;20102;-73
2023/03/01 01:16:15;;;;;;;6.35;4.80;;;;;;;5.00;78.48;95252.66;5032899;28;20037;-74
2023/03/01 01:18:40;;;;;;;5.85;4.63;;;;;;;4.92;79.59;95247.91;5033232;28;20025;-73
2023/03/01 01:21:11;;;;;;;8.05;5.05;;;;;;;4.85;79.07;95231.13;5032618;28;20039;-73
2023/03/01 01:23:37;;;;;;;7.40;5.67;;;;;;;4.91;78.68;95253.97;5049289;28;20033;-74
2023/03/01 01:26:04;;;;;;;7.28;6.18;;;;;;;4.82;78.62;95242.44;5032670;28;20037;-74
2023/03/01 01:28:30;;;;;;;7.72;6.30;;;;;;;4.91;78.98;95252.22;5051350;28;20025;-74
2023/03/01 01:30:55;;;;;;;6.03;5.05;;;;;;;4.99;77.91;95238.13;5036287;28;20478;-73
2023/03/01 01:33:21;;;;;;;5.38;4.30;;;;;;;5.09;77.20;95254.72;5019662;28;20033;-74
2023/03/01 01:35:46;;;;;;;4.80;3.97;;;;;;;4.88;78.05;95251.56;5054035;28;20041;-74
2023/03/01 01:38:12;;;;;;;4.68;3.75;;;;;;;4.90;77.97;95266.03;5054180;28;20040;-74
2023/03/01 01:40:45;;;;;;;3.90;3.10;;;;;;;4.96;77.93;95259.72;5052784;28;20036;-73
2023/03/01 01:43:34;;;;;;;4.60;3.85;;;;;;;4.89;78.02;95251.47;5052709;28;20414;-74
2023/03/01 01:46:02;;;;;;;4.20;3.47;;;;;;;4.98;77.71;95257.03;5052730;28;20037;-73
2023/03/01 01:49:00;;;;;;;4.28;3.42;;;;;;;4.99;77.88;95254.41;5036378;28;20032;-73
2023/03/01 01:51:28;;;;;;;3.63;2.70;;;;;;;4.81;77.63;95245.91;5019956;28;20048;-74
2023/03/01 01:53:58;;;;;;;3.30;2.40;;;;;;;4.80;77.57;95246.00;5019975;28;20078;-73
2023/03/01 01:56:24;;;;;;;3.58;2.17;;;;;;;4.74;77.60;95257.44;5036164;28;20503;-73
2023/03/01 01:58:49;;;;;;;2.50;1.90;;;;;;;4.93;75.97;95239.25;5035946;28;20040;-73
2023/03/01 02:01:15;;;;;;;2.55;1.95;;;;;;;4.91;76.12;95254.78;5052311;28;20036;-73
2023/03/01 02:03:41;;;;;;;2.70;1.98;;;;;;;4.77;76.50;95241.00;5035711;28;20055;-73
2023/03/01 02:06:21;;;;;;;2.20;1.67;;;;;;;4.95;75.84;95252.06;5052261;28;20485;-74
2023/03/01 02:08:48;;;;;;;2.67;1.90;;;;;;;4.77;76.05;95248.72;5052295;28;20497;-74
2023/03/01 02:11:14;;;;;;;2.28;1.65;;;;;;;4.84;75.85;95240.56;5019187;28;20040;-74
2023/03/01 02:13:40;;;;;;;3.65;2.00;;;;;;;4.68;76.60;95243.16;5035810;28;20025;-74
2023/03/01 02:16:08;;;;;;;3.63;1.67;;;;;;;4.69;76.81;95236.25;5035599;28;20032;-74
2023/03/01 02:18:33;;;;;;;2.30;1.80;;;;;;;4.66;76.27;95221.81;5052172;28;20021;-74
2023/03/01 02:21:27;;;;;;;4.18;1.83;;;;;;;4.70;76.56;95237.91;5018698;28;20025;-73
2023/03/01 02:23:55;;;;;;;2.35;1.90;;;;;;;4.42;76.86;95231.63;5025865;28;20150;-73
2023/03/01 02:26:44;;;;;;;2.63;1.77;;;;;;;4.52;77.08;95220.88;5035663;28;20060;-73
2023/03/01 02:29:09;;;;;;;2.30;1.92;;;;;;;4.78;76.59;95246.06;5046788;28;20060;-73
2023/03/01 02:31:44;;;;;;;2.38;1.77;;;;;;;4.82;76.52;95247.56;5052986;28;20033;-73
2023/03/01 02:34:17;;;;;;;2.20;1.75;;;;;;;4.75;76.28;95228.22;5036858;28;20036;-73
2023/03/01 02:36:48;;;;;;;2.45;1.80;;;;;;;4.97;76.19;95255.38;5035537;28;20407;-74
2023/03/01 02:39:16;;;;;;;2.50;2.03;;;;;;;4.90;75.91;95240.28;5017961;28;20040;-74
2023/03/01 02:41:44;;;;;;;2.63;2.10;;;;;;;5.05;75.94;95248.91;5035116;28;20499;-74
2023/03/01 02:44:09;;;;;;;3.67;2.60;;;;;;;5.00;75.95;95245.75;5051842;28;20435;-74
2023/03/01 02:46:41;;;;;;;2.60;2.20;;;;;;;4.62;76.01;95229.75;5034852;28;20059;-73
2023/03/01 02:49:22;;;;;;;3.05;2.40;;;;;;;4.58;77.06;95252.25;5035319;28;20041;-74
2023/03/01 02:51:54;;;;;;;3.40;2.70;;;;;;;4.54;77.54;95261.06;5052595;28;20479;-73
2023/03/01 02:54:38;;;;;;;3.55;2.75;;;;;;;4.62;77.37;95247.78;5051817;28;20291;-73
2023/03/01 02:57:04;;;;;;;4.50;3.25;;;;;;;4.13;78.61;95227.19;5052723;28;20143;-74
2023/03/01 02:59:31;;;;;;;4.10;3.30;;;;;;;4.46;78.18;95251.16;5051395;28;20087;-73
2023/03/01 03:01:57;;;;;;;4.00;3.25;;;;;;;4.30;77.94;95206.56;5034927;28;20037;-73
2023/03/01 03:04:22;;;;;;;4.57;3.42;;;;;;;4.60;77.80;95241.91;5052803;28;20529;-73
2023/03/01 03:06:49;;;;;;;4.13;3.22;;;;;;;4.54;77.58;95229.34;5034554;28;20063;-73
2023/03/01 03:09:14;;;;;;;4.00;3.13;;;;;;;4.73;77.40;95247.22;5034758;28;20032;-74
2023/03/01 03:11:41;;;;;;;4.10;2.97;;;;;;;4.62;76.63;95222.88;5050968;28;20029;-73
2023/03/01 03:14:12;;;;;;;4.43;3.40;;;;;;;4.86;76.56;95249.06;5018050;28;20130;-74
2023/03/01 03:16:42;;;;;;;5.15;3.30;;;;;;;4.89;76.65;95243.75;5051068;28;20025;-73
2023/03/01 03:19:08;;;;;;;4.33;3.03;;;;;;;4.90;76.10;95226.53;5018584;28;20067;-73
2023/03/01 03:21:33;;;;;;;4.30;3.22;;;;;;;4.72;75.84;95182.03;5034103;28;20407;-73
2023/03/01 03:23:59;;;;;;;3.75;2.65;;;;;;;5.26;75.16;95249.47;5052435;28;20104;-74
2023/03/01 03:26:24;;;;;;;4.20;2.78;;;;;;;5.11;74.92;95248.56;5050631;28;20036;-74
2023/03/01 03:28:50;;;;;;;3.22;2.60;;;;;;;4.83;74.64;95195.16;5050679;28;20036;-73
2023/03/01 03:31:15;;;;;;;3.83;2.67;;;;;;;5.25;74.67;95254.72;5051744;28;20094;-73
2023/03/01 03:33:41;;;;;;;3.65;2.70;;;;;;;5.33;74.36;95244.81;5034041;28;20419;-73
2023/03/01 03:36:06;;;;;;;3.08;2.40;;;;;;;5.34;74.08;95241.31;5033902;28;20025;-73
2023/03/01 03:38:32;;;;;;;3.67;2.40;;;;;;;5.42;74.10;95252.03;5050736;28;20388;-73
2023/03/01 03:41:07;;;;;;;3.20;2.15;;;;;;;5.33;74.02;95239.66;5017363;28;20029;-73
2023/03/01 03:43:33;;;;;;;2.75;2.20;;;;;;;5.33;73.94;95257.69;5017818;28;20021;-73
2023/03/01 03:45:58;;;;;;;2.70;2.10;;;;;;;5.15;74.78;95257.81;5017265;28;20029;-74
2023/03/01 03:48:24;;;;;;;3.03;2.40;;;;;;;5.16;74.01;95217.41;5017308;28;20025;-74
2023/03/01 03:50:51;;;;;;;3.58;2.40;;;;;;;5.43;74.20;95253.69;5033281;28;20099;-73
2023/03/01 03:53:17;;;;;;;3.33;2.50;;;;;;;5.45;73.95;95251.03;5050332;28;20090;-73
2023/03/01 03:55:44;;;;;;;3.75;2.20;;;;;;;5.24;74.30;95259.03;5017057;28;20041;-73
2023/03/01 03:58:10;;;;;;;3.10;2.10;;;;;;;5.31;73.95;95255.19;5033640;28;20554;-73
2023/03/01 04:00:40;;;;;;;3.30;2.20;;;;;;;5.26;74.15;95244.31;5033538;28;20025;-74
2023/03/01 04:03:06;;;;;;;3.53;2.25;;;;;;;5.28;74.11;95250.22;5049995;28;20510;-73
2023/03/01 04:05:31;;;;;;;2.67;1.92;;;;;;;5.23;73.90;95241.09;5050034;28;20045;-73
2023/03/01 04:08:02;;;;;;;3.10;2.17;;;;;;;5.25;73.69;95229.78;5049905;28;20036;-73
2023/03/01 04:10:32;;;;;;;;;;;;;;;5.43;73.59;95258.00;5034755;28;20040;-73
2023/03/01 04:12:57;;;;;;;3.10;2.20;;;;;;;5.44;73.58;95257.13;5049954;28;20432;-73
2023/03/01 04:15:23;;;;;;;4.05;2.50;;;;;;;5.41;73.47;95252.13;5033471;28;20036;-75
2023/03/01 04:17:50;;;;;;;6.18;2.40;;;;;;;5.53;73.40;95260.00;5033324;28;20064;-74
2023/03/01 04:20:17;;;;;;;3.03;2.15;;;;;;;5.43;73.63;95252.84;5033238;28;20064;-74
2023/03/01 04:22:43;;;;;;;2.80;1.90;;;;;;;5.28;73.76;95255.38;5033067;28;20510;-74
2023/03/01 04:25:09;;;;;;;3.55;2.47;;;;;;;5.38;74.03;95248.81;5033163;28;20029;-74
2023/03/01 04:27:34;;;;;;;3.30;2.30;;;;;;;5.17;74.09;95257.69;5049551;28;20079;-74
2023/03/01 04:30:00;;;;;;;3.08;2.20;;;;;;;5.07;74.53;95262.53;5049583;28;20025;-73
2023/03/01 04:32:25;;;;;;;3.08;2.17;;;;;;;5.00;74.78;95261.19;5049391;28;20029;-73
2023/03/01 04:34:51;;;;;;;3.05;2.28;;;;;;;4.81;75.59;95268.25;5050753;28;20041;-73
2023/03/01 04:37:16;;;;;;;4.28;2.63;;;;;;;4.84;75.60;95250.06;5032712;28;20040;-74
2023/03/01 04:39:45;;;;;;;4.07;2.97;;;;;;;4.89;75.71;95250.63;5032859;28;20090;-73
2023/03/01 04:42:11;;;;;;;3.92;2.30;;;;;;;5.00;74.97;95255.22;5033164;28;20037;-74
2023/03/01 04:44:37;;;;;;;3.88;2.58;;;;;;;4.94;75.18;95251.22;5049669;28;20106;-74
2023/03/01 04:47:02;;;;;;;3.47;2.45;;;;;;;5.09;75.23;95262.44;5033143;28;20056;-74
2023/03/01 04:49:28;;;;;;;4.75;2.60;;;;;;;5.14;75.02;95260.44;5049650;28;20442;-74
2023/03/01 04:51:53;;;;;;;3.70;2.53;;;;;;;5.22;74.85;95260.03;5049245;28;20450;-74
2023/03/01 04:54:19;;;;;;;3.35;2.50;;;;;;;5.24;74.37;95261.63;5049351;28;20072;-73
2023/03/01 04:56:44;;;;;;;4.82;2.33;;;;;;;5.01;74.22;95215.66;5050399;28;20114;-73
2023/03/01 04:59:12;;;;;;;5.03;2.50;;;;;;;5.33;74.14;95258.53;5032948;28;20107;-74
2023/03/01 05:01:37;;;;;;;3.65;2.60;;;;;;;5.45;74.04;95257.00;5050321;28;20048;-74
2023/03/01 05:04:05;;;;;;;3.40;2.35;;;;;;;5.25;74.35;95268.41;5035992;28;20033;-73
2023/03/01 05:06:30;;;;;;;3.22;2.30;;;;;;;5.32;74.00;95266.31;5054386;28;20049;-74
2023/03/01 05:08:56;;;;;;;2.90;2.10;;;;;;;5.01;74.70;95255.13;5053377;28;20072;-74
2023/03/01 05:11:21;;;;;;;3.90;2.80;;;;;;;4.62;75.25;95199.72;5053163;28;20439;-73
2023/03/01 05:13:47;;;;;;;3.33;2.30;;;;;;;4.92;75.68;95271.91;5053252;28;20028;-73
2023/03/01 05:16:12;;;;;;;3.90;2.17;;;;;;;4.72;76.04;95263.59;5053084;28;20479;-73
2023/03/01 05:18:37;;;;;;;2.70;2.00;;;;;;;4.73;75.75;95268.63;5054557;28;20422;-73
2023/03/01 05:21:08;;;;;;;3.13;2.00;;;;;;;4.75;75.23;95268.56;5052973;28;20064;-73
2023/03/01 05:23:33;;;;;;;2.40;1.80;;;;;;;4.67;75.31;95243.22;5053085;28;20078;-74
2023/03/01 05:25:59;;;;;;;3.45;2.08;;;;;;;4.52;75.60;95262.06;5036249;28;20033;-73
2023/03/01 05:28:25;;;;;;;2.10;1.40;;;;;;;4.51;75.41;95260.38;5036327;28;20028;-73
2023/03/01 05:30:51;;;;;;;3.10;2.22;;;;;;;4.68;75.27;95255.16;5052843;28;20021;-74
2023/03/01 05:33:17;;;;;;;3.00;1.80;;;;;;;4.60;74.86;95265.06;5036364;28;20033;-74
2023/03/01 05:35:43;;;;;;;3.35;2.50;;;;;;;4.56;75.98;95260.97;5053854;28;20527;-73
2023/03/01 05:38:12;;;;;;;2.00;1.50;;;;;;;4.55;75.71;95254.19;5052810;28;20025;-74
2023/03/01 05:40:38;;;;;;;3.30;1.65;;;;;;;4.73;75.21;95260.09;5052682;28;20536;-74
2023/03/01 05:43:05;;;;;;;2.83;1.80;;;;;;;4.73;74.89;95266.06;5053816;28;20071;-73
2023/03/01 05:45:32;;;;;;;2.17;1.50;;;;;;;4.87;73.08;95255.03;5052507;28;20029;-73
2023/03/01 05:47:57;;;;;;;4.03;1.80;;;;;;;4.91;73.70;95256.53;5036232;28;20032;-73
2023/03/01 05:50:25;;;;;;;2.30;1.70;;;;;;;4.89;73.48;95256.63;5053789;28;20029;-73
2023/03/01 05:53:10;;;;;;;2.67;1.70;;;;;;;5.07;73.47;95267.69;5017785;28;20032;-73
2023/03/01 05:55:36;;;;;;;3.10;1.95;;;;;;;4.80;73.86;95254.53;5050282;28;20036;-74
2023/03/01 05:58:02;;;;;;;2.10;1.30;;;;;;;4.97;73.64;95281.13;5050401;28;20529;-73
2023/03/01 06:00:28;;;;;;;2.05;1.50;;;;;;;4.97;72.99;95281.97;5050997;28;20033;-74
2023/03/01 06:02:54;;;;;;;6.95;5.05;;;;;;;4.93;73.22;95286.44;5034503;28;20044;-74
2023/03/01 06:05:19;;;;;;;2.38;1.38;;;;;;;4.95;73.28;95285.53;5051356;28;20021;-74
2023/03/01 06:07:45;;;;;;;12.07;9.98;;;;;;;4.92;73.30;95283.94;5052650;28;20037;-73
2023/03/01 06:10:11;;;;;;;2.22;1.73;;;;;;;4.78;73.18;95271.81;5035202;28;20410;-73
2023/03/01 06:12:37;;;;;;;2.08;1.25;;;;;;;4.97;72.65;95297.41;5051836;28;20078;-74
2023/03/01 06:15:04;;;;;;;2.08;1.10;;;;;;;5.02;72.82;95292.03;5051728;28;20024;-74
2023/03/01 06:17:30;;;;;;;1.55;1.10;;;;;;;5.04;72.36;95292.75;5035558;28;20029;-73
2023/03/01 06:19:55;;;;;;;2.25;0.88;;;;;;;5.07;72.15;95302.88;5052097;28;20522;-74
2023/03/01 06:22:21;;;;;;;3.40;1.00;;;;;;;5.19;71.88;95291.13;5018559;28;20048;-74
2023/03/01 06:24:46;;;;;;;1.30;0.90;;;;;;;5.29;71.73;95298.28;5051791;28;20238;-73
2023/03/01 06:27:11;;;;;;;1.50;1.00;;;;;;;5.26;71.09;95277.81;5051801;28;20029;-74
2023/03/01 06:29:37;;;;;;;1.77;1.27;;;;;;;5.01;71.52;95293.75;5018883;28;20032;-73
2023/03/01 06:32:03;;;;;;;1.42;0.90;;;;;;;5.00;71.89;95304.16;5051709;28;20414;-74
2023/03/01 06:34:28;;;;;;;2.55;1.00;;;;;;;5.12;71.57;95295.75;5053403;28;20469;-73
2023/03/01 06:36:54;;;;;;;1.80;1.30;;;;;;;5.05;72.44;95292.69;5051565;28;20483;-73
2023/03/01 06:39:19;;;;;;;2.22;1.45;;;;;;;5.20;72.09;95306.47;5035095;28;20033;-73
2023/03/01 06:41:45;;;;;;;2.10;1.48;;;;;;;5.27;71.86;95299.25;5052586;28;20033;-73
2023/03/01 06:44:10;;;;;;;2.30;1.73;;;;;;;5.27;71.77;95294.94;5051683;28;20032;-73
2023/03/01 06:46:36;;;;;;;1.80;1.30;;;;;;;5.35;71.30;95303.09;5034739;28;20037;-73
2023/03/01 06:49:04;;;;;;;2.45;1.60;;;;;;;5.12;73.09;95306.06;5051591;28;20040;-73
2023/03/01 06:51:29;;;;;;;2.88;2.20;;;;;;;5.19;73.32;95296.28;5051336;28;20120;-73
2023/03/01 06:53:55;;;;;;;3.00;2.15;;;;;;;5.15;73.83;95300.72;5051275;28;20069;-74
2023/03/01 06:56:20;;;;;;;3.35;2.22;;;;;;;5.14;73.36;95273.31;5034424;28;20054;-73
2023/03/01 06:58:46;;;;;;;5.10;4.03;;;;;;;5.08;73.93;95294.25;5052821;28;20040;-73
2023/03/01 07:01:11;;;;;;;3.95;2.92;;;;;;;5.29;73.93;95297.41;5051042;28;20029;-73
2023/03/01 07:03:37;;;;;;;5.90;3.58;;;;;;;5.29;73.97;95300.84;5052569;28;20111;-74
2023/03/01 07:06:02;;;;;;;5.20;3.50;;;;;;;5.49;72.91;95298.91;5052203;28;20037;-73
2023/03/01 07:08:28;;;;;;;4.97;3.50;;;;;;;5.57;72.58;95297.59;5050946;28;20112;-74
2023/03/01 07:11:01;;;;;;;3.08;2.35;;;;;;;5.42;71.74;95271.81;5050950;28;20484;-73
2023/03/01 07:13:27;;;;;;;2.95;1.90;;;;;;;5.66;71.53;95298.81;5034758;28;20033;-73
2023/03/01 07:15:52;;;;;;;5.00;2.35;;;;;;;5.55;71.34;95275.38;5052255;28;20399;-73
2023/03/01 07:18:18;;;;;;;3.55;2.10;;;;;;;5.79;70.58;95283.47;5034363;28;20044;-73
2023/03/01 07:20:43;;;;;;;2.70;1.63;;;;;;;5.85;69.73;95292.59;5017564;28;20037;-73
2023/03/01 07:23:08;;;;;;;2.30;1.67;;;;;;;5.72;70.33;95301.03;5051801;28;20037;-73
2023/03/01 07:25:34;;;;;;;2.53;2.13;;;;;;;5.75;69.91;95275.09;5050041;28;20037;-73
2023/03/01 07:27:59;;;;;;;1.92;1.05;;;;;;;5.65;69.18;95289.41;5050487;28;20086;-73
2023/03/01 07:30:27;;;;;;;3.42;1.20;;;;;;;5.62;69.46;95268.97;5017535;28;20041;-73
2023/03/01 07:32:52;;;;;;;1.90;0.90;;;;;;;5.97;68.38;95289.38;5017912;28;20032;-73
2023/03/01 07:35:18;;;;;;;1.42;0.90;;;;;;;5.98;67.79;95285.88;5050428;28;20037;-73
2023/03/01 07:37:43;;;;;;;1.70;1.00;;;;;;;6.11;67.77;95283.44;5050400;28;20033;-73
2023/03/01 07:40:09;;;;;;;1.50;1.00;;;;;;;6.06;67.88;95288.84;5033933;28;20025;-74
2023/03/01 07:42:35;;;;;;;1.77;1.00;;;;;;;6.09;67.05;95277.53;5050094;28;20040;-74
2023/03/01 07:45:00;;;;;;;1.70;1.00;;;;;;;6.10;67.01;95284.34;5033776;28;20033;-73
2023/03/01 07:47:26;;;;;;;1.50;1.10;;;;;;;6.02;66.94;95282.22;5050258;28;20477;-73
2023/03/01 07:49:51;;;;;;;2.33;1.30;;;;;;;6.17;66.91;95286.47;5050225;28;20070;-73
2023/03/01 07:52:16;;;;;;;1.85;1.20;;;;;;;6.21;66.63;95271.63;5049980;28;20021;-73
2023/03/01 07:54:42;;;;;;;2.45;1.50;;;;;;;6.26;67.35;95269.63;5033410;28;20533;-73
2023/03/01 07:57:08;;;;;;;2.08;1.35;;;;;;;6.15;67.23;95249.63;5033481;28;20485;-73
2023/03/01 07:59:33;;;;;;;2.47;1.50;;;;;;;6.30;66.21;95280.63;5051669;28;20033;-73
2023/03/01 08:01:59;;;;;;;2.05;1.40;;;;;;;6.19;66.35;95248.53;5016722;28;20515;-73
2023/03/01 08:04:26;;;;;;;2.63;1.42;;;;;;;6.31;66.61;95253.88;5051645;28;20033;-73
2023/03/01 08:06:52;;;;;;;2.50;1.50;;;;;;;6.34;66.86;95264.84;5049878;28;20507;-73
2023/03/01 08:09:17;;;;;;;3.13;1.58;;;;;;;6.39;66.69;95269.75;5050058;28;20036;-73
2023/03/01 08:11:43;;;;;;;2.50;1.80;;;;;;;6.28;67.23;95265.22;5033141;28;20044;-73
2023/03/01 08:14:08;;;;;;;2.45;1.90;;;;;;;6.01;67.64;95265.06;5050029;28;20037;-73
2023/03/01 08:16:35;;;;;;;2.50;1.83;;;;;;;5.76;68.72;95261.28;5016633;28;20029;-73
2023/03/01 08:19:07;;;;;;;3.15;2.20;;;;;;;5.83;68.37;95267.75;5049992;28;20029;-73
2023/03/01 08:21:34;;;;;;;2.78;2.08;;;;;;;5.91;67.58;95269.06;5017064;28;20044;-73
2023/03/01 08:24:03;;;;;;;3.53;2.08;;;;;;;5.81;68.12;95258.44;5049834;28;20056;-73
2023/03/01 08:26:29;;;;;;;3.08;2.10;;;;;;;5.81;68.23;95233.47;5017060;28;20033;-73
2023/03/01 08:28:54;;;;;;;2.72;2.10;;;;;;;5.64;68.59;95251.66;5033268;28;20033;-73
2023/03/01 08:31:21;;;;;;;3.50;2.20;;;;;;;5.89;68.58;95270.91;5049567;28;20033;-73
2023/03/01 08:33:50;;;;;;;4.28;2.13;;;;;;;5.91;68.12;95261.34;5050730;28;20060;-73
2023/03/01 08:36:16;;;;;;;4.30;2.40;;;;;;;5.95;68.45;95266.25;5017269;28;20033;-73
2023/03/01 08:38:41;;;;;;;3.17;2.13;;;;;;;5.93;67.93;95256.91;5016589;28;20411;-73
2023/03/01 08:41:07;;;;;;;4.20;2.28;;;;;;;5.92;68.36;95261.22;5049502;28;20029;-73
2023/03/01 08:43:32;;;;;;;3.55;2.60;;;;;;;5.99;68.48;95261.72;5049528;28;20044;-73
2023/03/01 08:45:58;;;;;;;3.05;2.40;;;;;;;5.95;68.27;95245.63;5033185;28;20037;-73
2023/03/01 08:48:24;;;;;;;2.88;2.13;;;;;;;6.19;67.71;95264.00;5032833;28;20494;-74
2023/03/01 08:50:49;;;;;;;3.22;2.00;;;;;;;6.27;67.56;95271.31;5049262;28;20037;-73
2023/03/01 08:53:14;;;;;;;3.25;1.88;;;;;;;6.37;67.18;95269.81;5050846;28;20037;-73
2023/03/01 08:55:40;;;;;;;2.65;1.70;;;;;;;6.34;66.12;95264.03;5016342;28;20044;-73
2023/03/01 08:58:05;;;;;;;2.65;1.60;;;;;;;6.22;66.51;95275.91;5032805;28;20067;-73
2023/03/01 09:00:34;;;;;;;2.75;1.98;;;;;;;6.19;66.18;95265.75;5049399;28;20496;-73
2023/03/01 09:03:00;;;;;;;2.40;1.50;;;;;;;5.97;67.46;95268.75;5050464;28;20047;-73
2023/03/01 09:05:25;;;;;;;3.03;1.92;;;;;;;5.96;66.80;95262.78;5049356;28;20037;-74
2023/03/01 09:07:51;;;;;;;2.83;1.90;;;;;;;5.95;66.90;95250.78;5032515;28;20032;-73
2023/03/01 09:10:16;;;;;;;3.10;2.20;;;;;;;5.71;67.59;95209.16;5049294;28;20033;-73
2023/03/01 09:12:42;;;;;;;3.45;1.90;;;;;;;5.99;67.29;95254.84;5032467;28;20030;-73
2023/03/01 09:15:08;;;;;;;2.75;1.90;;;;;;;5.71;67.33;95216.03;5049273;28;20055;-73
2023/03/01 09:17:33;;;;;;;2.92;1.90;;;;;;;6.16;66.82;95264.19;5032620;28;20045;-74
2023/03/01 09:19:59;;;;;;;3.10;1.98;;;;;;;6.27;67.26;95271.31;5032690;28;20040;-73
2023/03/01 09:22:25;;;;;;;3.15;2.10;;;;;;;6.14;66.96;95255.69;5032356;28;20032;-73
2023/03/01 09:24:50;;;;;;;3.10;1.90;;;;;;;6.31;66.67;95262.44;5049092;28;20056;-74
2023/03/01 09:27:18;;;;;;;2.83;1.92;;;;;;;6.24;66.48;95267.16;5032608;28;20033;-73
2023/03/01 09:29:44;;;;;;;3.35;2.10;;;;;;;5.91;67.11;95238.13;5032855;28;20087;-73
2023/03/01 09:32:10;;;;;;;3.05;2.03;;;;;;;5.99;67.32;95252.28;5049271;28;20025;-73
2023/03/01 09:35:00;;;;;;;3.40;2.28;;;;;;;6.04;67.81;95244.25;5032675;28;20431;-73
2023/03/01 09:37:21;;;;;;;3.30;2.03;;;;;;;6.04;67.43;95239.09;5048925;28;20091;-73
2023/03/01 09:39:46;;;;;;;2.75;1.95;;;;;;;6.25;67.46;95262.81;5015902;28;20564;-73
2023/03/01 09:42:11;;;;;;;3.47;2.03;;;;;;;6.32;66.03;95245.22;5050027;28;20087;-73
2023/03/01 09:44:45;;;;;;;3.15;1.67;;;;;;;6.13;67.45;95242.88;5049087;28;20059;-73
2023/03/01 09:47:30;;;;;;;3.42;2.25;;;;;;;6.11;67.09;95224.09;5050080;28;20132;-73
2023/03/01 09:49:58;;;;;;;2.72;1.90;;;;;;;6.32;67.09;95237.47;5036696;28;20082;-73
2023/03/01 09:52:43;;;;;;;3.03;1.88;;;;;;;6.38;67.21;95245.69;5052325;28;20511;-73
2023/03/01 09:55:11;;;;;;;3.33;2.35;;;;;;;6.42;67.20;95244.59;5035783;28;20120;-73
2023/03/01 09:57:53;;;;;;;3.78;2.38;;;;;;;6.42;66.33;95225.69;5052353;28;20141;-73
2023/03/01 10:00:30;;;;;;;2.80;2.40;;;;;;;6.36;66.73;95239.78;5019541;28;20033;-73
2023/03/01 10:03:00;;;;;;;2.72;2.00;;;;;;;6.02;68.02;95230.63;5053432;28;20048;-73
2023/03/01 10:05:38;;;;;;;3.30;1.83;;;;;;;6.17;68.26;95229.72;5035959;28;20487;-73
2023/03/01 10:08:35;;;;;;;3.85;2.38;;;;;;;6.18;67.11;95236.53;5052191;28;20087;-73
2023/03/01 10:11:01;;;;;;;3.67;2.47;;;;;;;6.10;67.37;95225.00;5053364;28;20491;-73
2023/03/01 10:13:53;;;;;;;3.45;2.45;;;;;;;5.93;68.53;95234.56;5035742;28;20032;-73
2023/03/01 10:16:46;;;;;;;3.92;2.75;;;;;;;6.28;68.25;95236.00;5033762;28;20049;-73
2023/03/01 10:19:16;;;;;;;4.53;2.88;;;;;;;6.45;67.98;95228.09;5045847;28;20120;-73
2023/03/01 10:21:44;;;;;;;3.53;2.63;;;;;;;6.63;67.39;95227.00;5035664;28;20041;-73
2023/03/01 10:24:12;;;;;;;2.83;2.28;;;;;;;6.44;66.50;95179.97;5019150;28;20068;-73
2023/03/01 10:26:37;;;;;;;3.17;2.20;;;;;;;6.59;66.12;95212.59;5035086;28;20040;-73
2023/03/01 10:29:09;;;;;;;3.90;2.53;;;;;;;6.62;66.86;95214.97;5053434;28;20465;-73
2023/03/01 10:31:39;;;;;;;3.45;2.30;;;;;;;6.10;67.27;95202.66;5035854;28;20045;-73
2023/03/01 10:34:15;;;;;;;3.50;2.40;;;;;;;6.34;67.78;95202.09;5051670;28;20029;-73
2023/03/01 10:36:41;;;;;;;3.30;2.45;;;;;;;6.22;67.44;95204.47;5019774;28;20415;-73
2023/03/01 10:39:18;;;;;;;3.35;2.33;;;;;;;5.94;68.76;95189.00;5053309;28;20029;-73
2023/03/01 10:42:06;;;;;;;4.00;2.92;;;;;;;5.67;69.94;95194.78;5051319;28;20033;-73
2023/03/01 10:44:39;;;;;;;4.40;2.58;;;;;;;5.98;69.16;95188.69;5051742;28;20025;-73
2023/03/01 10:47:05;;;;;;;3.30;2.65;;;;;;;6.21;68.70;95197.69;5018525;28;20037;-74
2023/03/01 10:49:31;;;;;;;4.40;2.97;;;;;;;5.75;69.11;95184.84;5051263;28;20086;-73
2023/03/01 10:51:56;;;;;;;4.53;2.60;;;;;;;6.01;69.30;95190.28;5034795;28;20302;-73
2023/03/01 10:54:30;;;;;;;3.88;2.70;;;;;;;6.42;68.31;95182.63;5034625;28;20041;-73
2023/03/01 10:57:03;;;;;;;4.65;3.20;;;;;;;6.42;67.01;95161.16;5051021;28;20053;-73
2023/03/01 10:59:30;;;;;;;3.67;2.85;;;;;;;6.54;67.52;95159.59;5034851;28;20388;-73
2023/03/01 11:02:03;;;;;;;4.40;2.92;;;;;;;6.88;66.83;95179.84;5050210;28;20033;-73
2023/03/01 11:04:28;;;;;;;4.15;2.78;;;;;;;6.93;66.01;95185.50;5050955;28;20033;-73
2023/03/01 11:07:00;;;;;;;4.30;2.58;;;;;;;6.65;66.58;95188.16;5034349;28;20040;-73
2023/03/01 11:09:28;;;;;;;2.92;2.28;;;;;;;6.25;67.71;95175.09;5034737;28;20028;-73
2023/03/01 11:11:55;;;;;;;3.22;2.50;;;;;;;6.39;68.04;95193.16;5018559;28;20029;-73
2023/03/01 11:14:25;;;;;;;3.80;2.60;;;;;;;6.47;66.44;95153.97;5034636;28;20102;-73
2023/03/01 11:17:01;;;;;;;3.58;2.70;;;;;;;6.62;66.27;95194.31;5035051;28;20036;-73
2023/03/01 11:19:27;;;;;;;4.03;2.92;;;;;;;6.63;66.45;95192.56;5034798;28;20052;-74
2023/03/01 11:21:57;;;;;;;4.00;3.00;;;;;;;6.83;66.02;95187.03;5050565;28;20484;-73
2023/03/01 11:24:43;;;;;;;3.40;2.65;;;;;;;6.62;66.50;95183.19;5057405;28;20032;-73
2023/03/01 11:27:17;;;;;;;4.75;2.83;;;;;;;6.78;66.40;95178.72;5032974;28;20099;-72
2023/03/01 11:30:05;;;;;;;3.88;3.05;;;;;;;6.74;66.64;95171.25;5017235;28;20045;-73
2023/03/01 11:32:45;;;;;;;4.88;3.08;;;;;;;6.97;65.87;95188.75;5051045;28;20041;-73
2023/03/01 11:35:22;;;;;;;3.92;2.97;;;;;;;6.99;66.11;95196.38;5034000;28;20037;-73
2023/03/01 11:37:56;;;;;;;3.58;2.80;;;;;;;7.06;65.59;95188.16;5033585;28;20040;-73
2023/03/01 11:40:23;;;;;;;2.95;2.38;;;;;;;6.84;65.41;95156.88;5066791;28;20179;-73
2023/03/01 11:43:12;;;;;;;3.80;2.70;;;;;;;6.98;65.33;95176.66;5064392;28;20410;-72
2023/03/01 11:45:52;;;;;;;3.97;2.92;;;;;;;6.96;65.12;95169.00;5051264;28;20097;-73